Cameron Village, North Carolina
Current Conditions -  °F | °C
As of 4:51 PM on Monday 24 Nov 2014 (Local Time) from KRDU Reporting Station
Broken Clouds Broken Clouds  
Wind Chill: 20°   Ceiling: 16000
Heat Index: 20°   Visibility: 10mi
Dew Point: 16°   Wind: 9mph
Humidity: 78%   Direction: 180°S
Pressure: 29.78"   Gusts: NA
Location:  35.7907°N, 78.6542°W
Report Text: KRDU 242151Z 18008KT 10SM FEW025 SCT050 SCT100 BKN160 BKN250 20/16 A2978 RMK AO2 TSB09E35RAB14E21 SLP080 P0001 T02000161
Loading
Personal Weather Stations






























Interactive Weather Map New forecast layout! Learn more

10-Day Weather Forecast

Advertisements
Track Severe Weather on mobile